createdAt,value
2023-04-22T00:00:08.344Z,61.96
2023-04-22T00:05:08.663Z,61.98
2023-04-22T00:10:09.068Z,61.98
2023-04-22T00:15:08.635Z,62.0
2023-04-22T00:20:08.726Z,62.0
2023-04-22T00:25:08.769Z,62.02
2023-04-22T00:30:08.801Z,62.03
2023-04-22T00:35:08.941Z,62.04
2023-04-22T00:40:07.971Z,62.05
2023-04-22T00:45:08.006Z,62.07
2023-04-22T00:50:08.066Z,62.08
2023-04-22T00:55:08.097Z,62.09
2023-04-22T01:00:08.180Z,62.09
2023-04-22T01:05:08.254Z,62.11
2023-04-22T01:10:08.370Z,62.12
2023-04-22T01:15:08.414Z,62.14
2023-04-22T01:20:08.627Z,62.14
2023-04-22T01:25:08.670Z,62.17
2023-04-22T01:30:08.719Z,62.18
2023-04-22T01:35:08.782Z,62.18
2023-04-22T01:40:08.883Z,62.21
2023-04-22T01:45:08.951Z,62.21
2023-04-22T01:50:07.985Z,62.21
2023-04-22T01:55:08.059Z,62.23
2023-04-22T02:00:08.119Z,62.24
2023-04-22T02:05:08.210Z,62.24
2023-04-22T02:10:08.364Z,62.24
2023-04-22T02:15:08.460Z,62.25
2023-04-22T02:20:08.586Z,62.27
2023-04-22T02:25:08.695Z,62.24
2023-04-22T02:30:08.701Z,62.27
2023-04-22T02:35:08.771Z,62.26
2023-04-22T02:40:08.866Z,62.26
2023-04-22T02:45:08.954Z,62.27
2023-04-22T02:50:08.034Z,62.28
2023-04-22T02:55:08.153Z,62.27
2023-04-22T03:00:08.228Z,62.28
2023-04-22T03:05:08.345Z,62.29
2023-04-22T03:10:08.442Z,62.28
2023-04-22T03:15:08.506Z,62.28
2023-04-22T03:20:08.711Z,62.28
2023-04-22T03:25:08.751Z,62.29
2023-04-22T03:30:08.805Z,62.29
2023-04-22T03:35:08.834Z,62.28
2023-04-22T03:40:08.933Z,62.29
2023-04-22T03:45:08.988Z,62.3
2023-04-22T03:50:08.144Z,62.3
2023-04-22T03:55:08.204Z,62.29
2023-04-22T04:00:08.228Z,62.3
2023-04-22T04:05:02.658Z,62.3
2023-04-22T04:10:03.374Z,62.29
2023-04-22T04:15:02.696Z,62.31
2023-04-22T04:20:03.159Z,62.31
2023-04-22T04:25:02.678Z,62.31
2023-04-22T04:30:02.311Z,62.3
2023-04-22T04:35:03.602Z,62.29
2023-04-22T04:40:03.303Z,62.33
2023-04-22T04:45:02.508Z,62.32
2023-04-22T04:50:02.947Z,62.32
2023-04-22T04:55:02.196Z,62.3
2023-04-22T05:00:02.783Z,62.31
2023-04-22T05:05:03.848Z,62.31
2023-04-22T05:10:03.655Z,62.31
2023-04-22T05:15:02.956Z,62.31
2023-04-22T05:20:03.537Z,62.3
2023-04-22T05:25:02.889Z,62.3
2023-04-22T05:30:03.149Z,62.3
2023-04-22T05:35:02.569Z,62.3
2023-04-22T05:40:03.027Z,62.3
2023-04-22T05:45:02.415Z,62.29
2023-04-22T05:50:02.906Z,62.29
2023-04-22T05:55:03.200Z,62.26
2023-04-22T06:00:03.257Z,62.28
2023-04-22T06:05:03.114Z,62.28
2023-04-22T06:10:05.190Z,62.24
2023-04-22T06:15:03.146Z,62.24
2023-04-22T06:20:03.818Z,62.22
2023-04-22T06:25:04.507Z,62.22
2023-04-22T06:30:03.959Z,62.2
2023-04-22T06:35:02.248Z,62.19
2023-04-22T06:40:02.493Z,62.17
2023-04-22T06:45:03.508Z,62.17
2023-04-22T06:50:02.738Z,62.12
2023-04-22T06:55:03.275Z,62.09
2023-04-22T07:00:02.589Z,62.09
2023-04-22T07:05:02.787Z,62.09
2023-04-22T07:10:04.160Z,62.04
2023-04-22T07:15:02.641Z,62.01
2023-04-22T07:20:03.006Z,61.94
2023-04-22T07:25:02.254Z,61.92
2023-04-22T07:30:03.312Z,61.86
2023-04-22T07:35:02.897Z,61.78
2023-04-22T07:40:03.214Z,61.71
2023-04-22T07:45:02.429Z,61.71
2023-04-22T07:50:03.023Z,61.55
2023-04-22T07:55:02.254Z,61.49
2023-04-22T08:00:03.028Z,61.41
2023-04-22T08:05:02.746Z,61.36
2023-04-22T08:10:02.955Z,61.29
2023-04-22T08:15:02.173Z,61.22
2023-04-22T08:20:03.855Z,61.14
2023-04-22T08:25:03.195Z,61.13
2023-04-22T08:30:02.503Z,61.08
2023-04-22T08:35:05.627Z,61.02
2023-04-22T08:40:03.040Z,61.0
2023-04-22T08:45:02.820Z,60.96
2023-04-22T08:50:03.130Z,60.91
2023-04-22T08:55:02.965Z,60.86
2023-04-22T09:00:02.158Z,60.85
2023-04-22T09:05:03.591Z,60.78
2023-04-22T09:10:02.817Z,60.74
2023-04-22T09:15:03.039Z,60.76
2023-04-22T09:20:02.402Z,60.68
2023-04-22T09:25:02.569Z,60.62
2023-04-22T09:30:03.152Z,60.57
2023-04-22T09:35:02.305Z,60.56
2023-04-22T09:40:02.444Z,60.51
2023-04-22T09:45:04.220Z,60.44
2023-04-22T09:50:02.837Z,60.38
2023-04-22T09:55:03.079Z,60.34
2023-04-22T10:00:02.862Z,60.3
2023-04-22T10:05:04.911Z,60.24
2023-04-22T10:10:03.605Z,60.17
2023-04-22T10:15:02.909Z,60.17
2023-04-22T10:20:03.083Z,60.03
2023-04-22T10:25:02.543Z,59.95
2023-04-22T10:30:03.025Z,59.88
2023-04-22T10:35:13.569Z,59.83
2023-04-22T10:40:02.715Z,59.78
2023-04-22T10:45:03.307Z,59.71
2023-04-22T10:50:02.644Z,59.68
2023-04-22T10:55:03.077Z,59.59
2023-04-22T11:00:02.263Z,59.59
2023-04-22T11:05:03.447Z,59.53
2023-04-22T11:10:02.741Z,59.53
2023-04-22T11:15:03.232Z,59.5
2023-04-22T11:20:02.497Z,59.5
2023-04-22T11:25:03.268Z,59.42
2023-04-22T11:30:02.734Z,59.33
2023-04-22T11:35:02.876Z,59.22
2023-04-22T11:40:17.291Z,59.22
2023-04-22T11:45:02.805Z,59.05
2023-04-22T11:50:03.307Z,59.01
2023-04-22T11:55:04.091Z,58.97
2023-04-22T12:00:02.591Z,58.96
2023-04-22T12:05:03.169Z,58.99
2023-04-22T12:10:02.387Z,58.97
2023-04-22T12:15:03.512Z,59.01
2023-04-22T12:20:02.879Z,59.03
2023-04-22T12:25:03.333Z,59.03
2023-04-22T12:30:03.703Z,59.0
2023-04-22T12:35:03.066Z,58.93
2023-04-22T12:40:02.614Z,58.75
2023-04-22T12:45:03.537Z,58.75
2023-04-22T12:50:03.423Z,58.42
2023-04-22T12:55:02.670Z,58.31
2023-04-22T13:00:03.316Z,58.28
2023-04-22T13:05:05.336Z,58.25
2023-04-22T13:10:03.281Z,58.26
2023-04-22T13:15:02.498Z,58.3
2023-04-22T13:20:02.965Z,58.38
2023-04-22T13:25:02.120Z,58.39
2023-04-22T13:30:02.463Z,58.39
2023-04-22T13:35:03.366Z,58.47
2023-04-22T13:40:04.320Z,58.44
2023-04-22T13:45:03.333Z,58.44
2023-04-22T13:50:03.120Z,58.48
2023-04-22T13:55:02.423Z,58.47
2023-04-22T14:00:02.820Z,58.43
2023-04-22T14:05:02.984Z,58.44
2023-04-22T14:10:02.773Z,58.44
2023-04-22T14:15:03.147Z,58.49
2023-04-22T14:20:02.446Z,58.57
2023-04-22T14:25:02.765Z,58.62
2023-04-22T14:30:03.826Z,58.69
2023-04-22T14:35:03.548Z,58.81
2023-04-22T14:40:03.109Z,58.9
2023-04-22T14:45:02.768Z,59.0
2023-04-22T14:50:03.693Z,59.11
2023-04-22T14:55:11.928Z,59.28
2023-04-22T15:00:03.444Z,59.43
2023-04-22T15:05:02.872Z,59.62
2023-04-22T15:10:03.191Z,59.77
2023-04-22T15:15:02.838Z,59.91
2023-04-22T15:20:05.715Z,59.99
2023-04-22T15:25:02.823Z,60.08
2023-04-22T15:30:03.055Z,60.14
2023-04-22T15:35:03.574Z,60.16
2023-04-22T15:40:03.244Z,60.23
2023-04-22T15:45:03.959Z,60.23
2023-04-22T15:50:02.688Z,60.28
2023-04-22T15:55:03.359Z,60.31
2023-04-22T16:00:10.978Z,60.32
2023-04-22T16:05:02.845Z,60.39
2023-04-22T16:10:04.678Z,60.44
2023-04-22T16:15:05.029Z,60.48
2023-04-22T16:20:02.332Z,60.5
2023-04-22T16:25:03.086Z,60.5
2023-04-22T16:30:02.604Z,60.61
2023-04-22T16:35:03.350Z,60.64
2023-04-22T16:40:02.625Z,60.64
2023-04-22T16:45:03.014Z,60.72
2023-04-22T16:50:04.100Z,60.73
2023-04-22T16:55:02.621Z,60.77
2023-04-22T17:00:03.245Z,60.77
2023-04-22T17:05:03.397Z,60.85
2023-04-22T17:10:05.638Z,60.89
2023-04-22T17:15:03.115Z,60.92
2023-04-22T17:20:03.067Z,60.96
2023-04-22T17:25:02.367Z,61.0
2023-04-22T17:30:02.873Z,61.03
2023-04-22T17:35:04.807Z,61.06
2023-04-22T17:40:03.236Z,61.1
2023-04-22T17:45:02.983Z,61.11
2023-04-22T17:50:02.192Z,61.15
2023-04-22T17:55:03.119Z,61.2
2023-04-22T18:00:02.458Z,61.18
2023-04-22T18:05:03.682Z,61.18
2023-04-22T18:10:03.964Z,61.28
2023-04-22T18:15:02.736Z,61.3
2023-04-22T18:20:16.844Z,61.32
2023-04-22T18:25:03.445Z,61.32
2023-04-22T18:30:03.078Z,61.32
2023-04-22T18:35:02.350Z,61.36
2023-04-22T18:40:03.563Z,61.38
2023-04-22T18:45:04.573Z,61.38
2023-04-22T18:50:04.236Z,61.38
2023-04-22T18:55:02.481Z,61.38
2023-04-22T19:00:05.008Z,61.5
2023-04-22T19:05:03.345Z,61.52
2023-04-22T19:10:02.604Z,61.57
2023-04-22T19:15:03.216Z,61.61
2023-04-22T19:20:02.853Z,61.64
2023-04-22T19:25:04.395Z,61.67
2023-04-22T19:30:02.822Z,61.71
2023-04-22T19:35:05.318Z,61.75
2023-04-22T19:40:02.467Z,61.77
2023-04-22T19:45:02.788Z,61.8
2023-04-22T19:50:03.863Z,61.86
2023-04-22T19:55:03.251Z,61.89
2023-04-22T20:00:02.551Z,61.9
2023-04-22T20:05:03.544Z,61.94
2023-04-22T20:10:03.640Z,61.94
2023-04-22T20:15:03.310Z,61.97
2023-04-22T20:20:02.898Z,62.02
2023-04-22T20:25:03.666Z,62.02
2023-04-22T20:30:02.944Z,62.02
2023-04-22T20:35:02.379Z,62.06
2023-04-22T20:40:02.735Z,62.1
2023-04-22T20:45:03.718Z,62.12
2023-04-22T20:50:02.945Z,62.12
2023-04-22T20:55:02.299Z,62.19
2023-04-22T21:00:04.198Z,62.21
2023-04-22T21:05:03.729Z,62.25
2023-04-22T21:10:04.896Z,62.27
2023-04-22T21:15:04.305Z,62.3
2023-04-22T21:20:02.976Z,62.34
2023-04-22T21:25:02.577Z,62.37
2023-04-22T21:30:03.446Z,62.38
2023-04-22T21:35:03.208Z,62.38
2023-04-22T21:40:02.881Z,62.44
2023-04-22T21:45:03.269Z,62.47
2023-04-22T21:50:02.519Z,62.49
2023-04-22T21:55:03.475Z,62.47
2023-04-22T22:00:02.752Z,62.52
2023-04-22T22:05:15.743Z,62.52
2023-04-22T22:10:08.868Z,62.55
2023-04-22T22:15:08.915Z,62.57
2023-04-22T22:20:12.922Z,62.58
2023-04-22T22:25:09.956Z,62.58
2023-04-22T22:30:08.011Z,62.58
2023-04-22T22:35:08.114Z,62.58
2023-04-22T22:40:08.197Z,62.62
2023-04-22T22:45:08.265Z,62.62
2023-04-22T22:50:08.376Z,62.67
2023-04-22T22:55:08.474Z,62.66
2023-04-22T23:01:14.898Z,62.68
2023-04-22T23:05:10.788Z,62.72
2023-04-22T23:10:08.215Z,62.73
2023-04-22T23:15:08.252Z,62.73
2023-04-22T23:20:08.283Z,62.74
2023-04-22T23:25:08.360Z,62.78
2023-04-22T23:30:08.440Z,62.78
2023-04-22T23:35:08.696Z,62.8
2023-04-22T23:40:08.717Z,62.8
2023-04-22T23:45:08.815Z,62.8
2023-04-22T23:50:08.880Z,62.8
2023-04-22T23:55:08.954Z,62.87
